sensor_id;sensor_type;location;lat;lon;timestamp;P1;durP1;ratioP1;P2;durP2;ratioP2
22634;SDS011;11484;50.858;4.384;2023-03-13T00:01:35;7.85;;;2.35;;
22634;SDS011;11484;50.858;4.384;2023-03-13T00:04:05;8.65;;;2.55;;
22634;SDS011;11484;50.858;4.384;2023-03-13T00:06:33;6.53;;;2.42;;
22634;SDS011;11484;50.858;4.384;2023-03-13T00:09:00;7.65;;;2.60;;
22634;SDS011;11484;50.858;4.384;2023-03-13T00:11:27;9.10;;;2.97;;
22634;SDS011;11484;50.858;4.384;2023-03-13T00:13:54;7.03;;;2.65;;
22634;SDS011;11484;50.858;4.384;2023-03-13T00:16:21;7.28;;;1.92;;
22634;SDS011;11484;50.858;4.384;2023-03-13T00:18:47;7.45;;;2.90;;
22634;SDS011;11484;50.858;4.384;2023-03-13T00:21:15;6.30;;;2.47;;
22634;SDS011;11484;50.858;4.384;2023-03-13T00:23:42;5.50;;;2.20;;
22634;SDS011;11484;50.858;4.384;2023-03-13T00:26:09;6.90;;;2.33;;
22634;SDS011;11484;50.858;4.384;2023-03-13T00:28:37;8.88;;;2.53;;
22634;SDS011;11484;50.858;4.384;2023-03-13T00:31:07;5.93;;;2.40;;
22634;SDS011;11484;50.858;4.384;2023-03-13T00:33:44;6.57;;;2.70;;
22634;SDS011;11484;50.858;4.384;2023-03-13T00:36:13;5.25;;;2.22;;
22634;SDS011;11484;50.858;4.384;2023-03-13T00:38:43;6.18;;;2.65;;
22634;SDS011;11484;50.858;4.384;2023-03-13T00:41:13;5.15;;;2.45;;
22634;SDS011;11484;50.858;4.384;2023-03-13T00:43:44;9.32;;;2.97;;
22634;SDS011;11484;50.858;4.384;2023-03-13T00:46:11;4.72;;;2.60;;
22634;SDS011;11484;50.858;4.384;2023-03-13T00:48:38;6.75;;;2.50;;
22634;SDS011;11484;50.858;4.384;2023-03-13T00:51:05;4.90;;;2.30;;
22634;SDS011;11484;50.858;4.384;2023-03-13T00:53:31;3.75;;;2.10;;
22634;SDS011;11484;50.858;4.384;2023-03-13T00:55:58;4.82;;;2.33;;
22634;SDS011;11484;50.858;4.384;2023-03-13T00:58:27;4.38;;;2.42;;
22634;SDS011;11484;50.858;4.384;2023-03-13T01:00:55;5.07;;;2.33;;
22634;SDS011;11484;50.858;4.384;2023-03-13T01:03:21;4.88;;;2.65;;
22634;SDS011;11484;50.858;4.384;2023-03-13T01:05:58;4.43;;;2.80;;
22634;SDS011;11484;50.858;4.384;2023-03-13T01:08:25;4.60;;;3.00;;
22634;SDS011;11484;50.858;4.384;2023-03-13T01:10:56;7.72;;;3.17;;
22634;SDS011;11484;50.858;4.384;2023-03-13T01:13:26;5.65;;;3.33;;
22634;SDS011;11484;50.858;4.384;2023-03-13T01:15:54;6.78;;;3.70;;
22634;SDS011;11484;50.858;4.384;2023-03-13T01:18:20;10.18;;;3.80;;
22634;SDS011;11484;50.858;4.384;2023-03-13T01:20:45;5.63;;;3.88;;
22634;SDS011;11484;50.858;4.384;2023-03-13T01:23:11;6.90;;;4.45;;
22634;SDS011;11484;50.858;4.384;2023-03-13T01:25:37;8.80;;;4.38;;
22634;SDS011;11484;50.858;4.384;2023-03-13T01:28:04;6.40;;;4.03;;
22634;SDS011;11484;50.858;4.384;2023-03-13T01:30:29;6.82;;;4.50;;
22634;SDS011;11484;50.858;4.384;2023-03-13T01:32:56;8.77;;;4.20;;
22634;SDS011;11484;50.858;4.384;2023-03-13T01:35:21;7.28;;;4.45;;
22634;SDS011;11484;50.858;4.384;2023-03-13T01:37:47;6.35;;;4.43;;
22634;SDS011;11484;50.858;4.384;2023-03-13T01:40:12;7.72;;;5.00;;
22634;SDS011;11484;50.858;4.384;2023-03-13T01:48:42;9.10;;;4.68;;
22634;SDS011;11484;50.858;4.384;2023-03-13T01:51:11;7.85;;;4.70;;
22634;SDS011;11484;50.858;4.384;2023-03-13T01:54:07;5.68;;;4.20;;
22634;SDS011;11484;50.858;4.384;2023-03-13T01:56:49;9.02;;;4.57;;
22634;SDS011;11484;50.858;4.384;2023-03-13T01:59:17;10.13;;;4.50;;
22634;SDS011;11484;50.858;4.384;2023-03-13T02:01:46;7.20;;;4.47;;
22634;SDS011;11484;50.858;4.384;2023-03-13T02:04:15;5.63;;;3.90;;
22634;SDS011;11484;50.858;4.384;2023-03-13T02:06:42;6.90;;;4.22;;
22634;SDS011;11484;50.858;4.384;2023-03-13T02:09:17;6.93;;;4.05;;
22634;SDS011;11484;50.858;4.384;2023-03-13T02:14:35;7.35;;;3.53;;
22634;SDS011;11484;50.858;4.384;2023-03-13T02:17:03;7.88;;;3.72;;
22634;SDS011;11484;50.858;4.384;2023-03-13T02:27:36;6.78;;;3.28;;
22634;SDS011;11484;50.858;4.384;2023-03-13T02:30:02;5.57;;;3.25;;
22634;SDS011;11484;50.858;4.384;2023-03-13T02:32:29;6.40;;;3.10;;
22634;SDS011;11484;50.858;4.384;2023-03-13T02:34:57;5.65;;;2.90;;
22634;SDS011;11484;50.858;4.384;2023-03-13T02:37:27;4.97;;;3.10;;
22634;SDS011;11484;50.858;4.384;2023-03-13T02:39:54;5.70;;;3.13;;
22634;SDS011;11484;50.858;4.384;2023-03-13T02:42:23;4.57;;;2.75;;
22634;SDS011;11484;50.858;4.384;2023-03-13T02:44:49;4.63;;;3.28;;
22634;SDS011;11484;50.858;4.384;2023-03-13T02:47:20;4.43;;;2.90;;
22634;SDS011;11484;50.858;4.384;2023-03-13T02:49:47;6.53;;;3.35;;
22634;SDS011;11484;50.858;4.384;2023-03-13T02:52:28;4.43;;;2.95;;
22634;SDS011;11484;50.858;4.384;2023-03-13T02:54:57;4.68;;;3.13;;
22634;SDS011;11484;50.858;4.384;2023-03-13T02:57:26;5.13;;;3.03;;
22634;SDS011;11484;50.858;4.384;2023-03-13T02:59:53;5.63;;;3.83;;
22634;SDS011;11484;50.858;4.384;2023-03-13T03:02:19;3.95;;;2.60;;
22634;SDS011;11484;50.858;4.384;2023-03-13T03:04:45;4.93;;;2.58;;
22634;SDS011;11484;50.858;4.384;2023-03-13T03:07:10;5.47;;;3.10;;
22634;SDS011;11484;50.858;4.384;2023-03-13T03:09:36;3.58;;;2.17;;
22634;SDS011;11484;50.858;4.384;2023-03-13T03:12:02;3.88;;;2.53;;
22634;SDS011;11484;50.858;4.384;2023-03-13T03:14:28;4.78;;;2.25;;
22634;SDS011;11484;50.858;4.384;2023-03-13T03:16:53;3.20;;;2.30;;
22634;SDS011;11484;50.858;4.384;2023-03-13T03:19:19;4.00;;;2.60;;
22634;SDS011;11484;50.858;4.384;2023-03-13T03:21:45;4.88;;;2.20;;
22634;SDS011;11484;50.858;4.384;2023-03-13T03:24:12;4.97;;;2.25;;
22634;SDS011;11484;50.858;4.384;2023-03-13T03:26:38;4.72;;;2.22;;
22634;SDS011;11484;50.858;4.384;2023-03-13T03:29:03;4.57;;;2.40;;
22634;SDS011;11484;50.858;4.384;2023-03-13T03:31:29;4.85;;;2.20;;
22634;SDS011;11484;50.858;4.384;2023-03-13T03:33:55;3.38;;;1.92;;
22634;SDS011;11484;50.858;4.384;2023-03-13T03:36:21;5.85;;;2.95;;
22634;SDS011;11484;50.858;4.384;2023-03-13T03:38:48;3.90;;;2.20;;
22634;SDS011;11484;50.858;4.384;2023-03-13T03:41:15;3.63;;;2.00;;
22634;SDS011;11484;50.858;4.384;2023-03-13T03:43:41;3.47;;;2.00;;
22634;SDS011;11484;50.858;4.384;2023-03-13T03:46:07;3.97;;;2.40;;
22634;SDS011;11484;50.858;4.384;2023-03-13T03:48:33;3.88;;;2.58;;
22634;SDS011;11484;50.858;4.384;2023-03-13T03:51:00;4.47;;;2.28;;
22634;SDS011;11484;50.858;4.384;2023-03-13T03:53:25;3.83;;;1.98;;
22634;SDS011;11484;50.858;4.384;2023-03-13T03:55:52;4.13;;;1.75;;
22634;SDS011;11484;50.858;4.384;2023-03-13T03:58:17;3.00;;;1.67;;
22634;SDS011;11484;50.858;4.384;2023-03-13T04:00:44;4.15;;;2.08;;
22634;SDS011;11484;50.858;4.384;2023-03-13T04:03:10;2.83;;;1.92;;
22634;SDS011;11484;50.858;4.384;2023-03-13T04:05:37;4.07;;;1.60;;
22634;SDS011;11484;50.858;4.384;2023-03-13T04:08:03;4.82;;;1.75;;
22634;SDS011;11484;50.858;4.384;2023-03-13T04:10:29;4.15;;;1.67;;
22634;SDS011;11484;50.858;4.384;2023-03-13T04:12:54;3.80;;;1.80;;
22634;SDS011;11484;50.858;4.384;2023-03-13T04:15:20;3.38;;;1.60;;
22634;SDS011;11484;50.858;4.384;2023-03-13T04:17:46;5.28;;;2.55;;
22634;SDS011;11484;50.858;4.384;2023-03-13T04:20:11;4.88;;;1.95;;
22634;SDS011;11484;50.858;4.384;2023-03-13T04:22:38;3.30;;;2.03;;
22634;SDS011;11484;50.858;4.384;2023-03-13T04:25:04;6.13;;;2.03;;
22634;SDS011;11484;50.858;4.384;2023-03-13T04:27:31;5.28;;;2.03;;
22634;SDS011;11484;50.858;4.384;2023-03-13T04:29:58;3.08;;;1.80;;
22634;SDS011;11484;50.858;4.384;2023-03-13T04:32:23;3.10;;;1.58;;
22634;SDS011;11484;50.858;4.384;2023-03-13T04:34:49;4.88;;;2.30;;
22634;SDS011;11484;50.858;4.384;2023-03-13T04:37:15;3.38;;;1.75;;
22634;SDS011;11484;50.858;4.384;2023-03-13T04:39:41;4.15;;;2.28;;
22634;SDS011;11484;50.858;4.384;2023-03-13T04:42:07;6.18;;;1.88;;
22634;SDS011;11484;50.858;4.384;2023-03-13T04:44:34;4.70;;;2.00;;
22634;SDS011;11484;50.858;4.384;2023-03-13T04:47:00;4.18;;;1.70;;
22634;SDS011;11484;50.858;4.384;2023-03-13T04:49:26;4.18;;;1.55;;
22634;SDS011;11484;50.858;4.384;2023-03-13T04:51:51;5.28;;;2.10;;
22634;SDS011;11484;50.858;4.384;2023-03-13T04:54:17;5.15;;;2.33;;
22634;SDS011;11484;50.858;4.384;2023-03-13T04:56:43;5.93;;;2.13;;
22634;SDS011;11484;50.858;4.384;2023-03-13T04:59:12;3.88;;;1.90;;
22634;SDS011;11484;50.858;4.384;2023-03-13T05:01:38;6.20;;;1.77;;
22634;SDS011;11484;50.858;4.384;2023-03-13T05:04:04;3.53;;;1.70;;
22634;SDS011;11484;50.858;4.384;2023-03-13T05:06:31;3.28;;;1.70;;
22634;SDS011;11484;50.858;4.384;2023-03-13T05:08:56;5.05;;;1.85;;
22634;SDS011;11484;50.858;4.384;2023-03-13T05:11:22;5.63;;;2.10;;
22634;SDS011;11484;50.858;4.384;2023-03-13T05:13:48;4.68;;;2.17;;
22634;SDS011;11484;50.858;4.384;2023-03-13T05:16:13;3.25;;;1.85;;
22634;SDS011;11484;50.858;4.384;2023-03-13T05:18:39;6.50;;;2.00;;
22634;SDS011;11484;50.858;4.384;2023-03-13T05:21:05;3.67;;;1.70;;
22634;SDS011;11484;50.858;4.384;2023-03-13T05:23:31;4.80;;;1.83;;
22634;SDS011;11484;50.858;4.384;2023-03-13T05:25:57;8.10;;;1.92;;
22634;SDS011;11484;50.858;4.384;2023-03-13T05:28:23;5.47;;;1.90;;
22634;SDS011;11484;50.858;4.384;2023-03-13T05:30:49;3.65;;;1.70;;
22634;SDS011;11484;50.858;4.384;2023-03-13T05:33:15;3.28;;;1.63;;
22634;SDS011;11484;50.858;4.384;2023-03-13T05:35:41;3.42;;;1.60;;
22634;SDS011;11484;50.858;4.384;2023-03-13T05:38:07;5.70;;;1.98;;
22634;SDS011;11484;50.858;4.384;2023-03-13T05:40:32;5.00;;;1.80;;
22634;SDS011;11484;50.858;4.384;2023-03-13T05:42:58;5.63;;;2.17;;
22634;SDS011;11484;50.858;4.384;2023-03-13T05:45:23;6.28;;;1.92;;
22634;SDS011;11484;50.858;4.384;2023-03-13T05:47:49;6.50;;;1.92;;
22634;SDS011;11484;50.858;4.384;2023-03-13T05:50:15;4.65;;;1.88;;
22634;SDS011;11484;50.858;4.384;2023-03-13T05:52:41;7.53;;;1.90;;
22634;SDS011;11484;50.858;4.384;2023-03-13T05:55:07;3.45;;;1.90;;
22634;SDS011;11484;50.858;4.384;2023-03-13T05:57:33;5.18;;;1.75;;
22634;SDS011;11484;50.858;4.384;2023-03-13T05:59:58;5.03;;;1.50;;
22634;SDS011;11484;50.858;4.384;2023-03-13T06:02:24;5.45;;;1.92;;
22634;SDS011;11484;50.858;4.384;2023-03-13T06:04:50;6.35;;;2.03;;
22634;SDS011;11484;50.858;4.384;2023-03-13T06:07:15;4.72;;;1.77;;
22634;SDS011;11484;50.858;4.384;2023-03-13T06:09:41;4.72;;;1.63;;
22634;SDS011;11484;50.858;4.384;2023-03-13T06:12:07;6.45;;;2.05;;
22634;SDS011;11484;50.858;4.384;2023-03-13T06:14:34;6.65;;;2.10;;
22634;SDS011;11484;50.858;4.384;2023-03-13T06:17:01;4.40;;;1.70;;
22634;SDS011;11484;50.858;4.384;2023-03-13T06:19:28;5.78;;;1.70;;
22634;SDS011;11484;50.858;4.384;2023-03-13T06:21:54;4.95;;;2.10;;
22634;SDS011;11484;50.858;4.384;2023-03-13T06:24:19;7.93;;;2.00;;
22634;SDS011;11484;50.858;4.384;2023-03-13T06:26:47;5.82;;;2.10;;
22634;SDS011;11484;50.858;4.384;2023-03-13T06:29:13;4.88;;;2.28;;
22634;SDS011;11484;50.858;4.384;2023-03-13T06:31:39;4.85;;;1.67;;
22634;SDS011;11484;50.858;4.384;2023-03-13T06:34:05;5.35;;;1.60;;
22634;SDS011;11484;50.858;4.384;2023-03-13T06:36:32;4.30;;;1.65;;
22634;SDS011;11484;50.858;4.384;2023-03-13T06:38:57;8.43;;;2.17;;
22634;SDS011;11484;50.858;4.384;2023-03-13T06:41:24;5.22;;;1.88;;
22634;SDS011;11484;50.858;4.384;2023-03-13T06:43:50;5.88;;;2.30;;
22634;SDS011;11484;50.858;4.384;2023-03-13T06:46:19;6.18;;;1.83;;
22634;SDS011;11484;50.858;4.384;2023-03-13T06:48:46;4.47;;;1.65;;
22634;SDS011;11484;50.858;4.384;2023-03-13T06:51:13;4.32;;;2.00;;
22634;SDS011;11484;50.858;4.384;2023-03-13T06:53:39;4.10;;;1.60;;
22634;SDS011;11484;50.858;4.384;2023-03-13T06:56:06;5.13;;;1.80;;
22634;SDS011;11484;50.858;4.384;2023-03-13T06:58:32;6.45;;;2.35;;
22634;SDS011;11484;50.858;4.384;2023-03-13T07:00:59;6.97;;;2.15;;
22634;SDS011;11484;50.858;4.384;2023-03-13T07:03:30;7.03;;;2.40;;
22634;SDS011;11484;50.858;4.384;2023-03-13T07:05:56;4.10;;;1.60;;
22634;SDS011;11484;50.858;4.384;2023-03-13T07:08:22;5.93;;;2.20;;
22634;SDS011;11484;50.858;4.384;2023-03-13T07:10:49;6.70;;;1.85;;
22634;SDS011;11484;50.858;4.384;2023-03-13T07:13:17;4.43;;;1.80;;
22634;SDS011;11484;50.858;4.384;2023-03-13T07:15:45;10.15;;;1.98;;
22634;SDS011;11484;50.858;4.384;2023-03-13T07:18:12;5.50;;;1.70;;
22634;SDS011;11484;50.858;4.384;2023-03-13T07:20:38;5.22;;;1.67;;
22634;SDS011;11484;50.858;4.384;2023-03-13T07:23:03;6.35;;;2.50;;
22634;SDS011;11484;50.858;4.384;2023-03-13T07:25:29;6.88;;;1.95;;
22634;SDS011;11484;50.858;4.384;2023-03-13T07:27:55;8.38;;;1.80;;
22634;SDS011;11484;50.858;4.384;2023-03-13T07:30:21;5.00;;;1.67;;
22634;SDS011;11484;50.858;4.384;2023-03-13T07:32:46;3.88;;;1.77;;
22634;SDS011;11484;50.858;4.384;2023-03-13T07:35:13;9.02;;;2.40;;
22634;SDS011;11484;50.858;4.384;2023-03-13T07:37:39;3.00;;;1.70;;
22634;SDS011;11484;50.858;4.384;2023-03-13T07:40:05;6.18;;;2.00;;
22634;SDS011;11484;50.858;4.384;2023-03-13T07:42:33;2.85;;;1.50;;
22634;SDS011;11484;50.858;4.384;2023-03-13T07:44:59;5.40;;;1.95;;
22634;SDS011;11484;50.858;4.384;2023-03-13T07:47:24;5.22;;;1.80;;
22634;SDS011;11484;50.858;4.384;2023-03-13T07:49:50;3.70;;;1.80;;
22634;SDS011;11484;50.858;4.384;2023-03-13T07:52:17;6.85;;;2.50;;
22634;SDS011;11484;50.858;4.384;2023-03-13T07:54:43;2.83;;;1.73;;
22634;SDS011;11484;50.858;4.384;2023-03-13T07:57:09;4.32;;;1.83;;
22634;SDS011;11484;50.858;4.384;2023-03-13T07:59:35;4.93;;;1.80;;
22634;SDS011;11484;50.858;4.384;2023-03-13T08:02:00;3.90;;;1.70;;
22634;SDS011;11484;50.858;4.384;2023-03-13T08:04:26;6.72;;;2.40;;
22634;SDS011;11484;50.858;4.384;2023-03-13T08:06:52;5.53;;;2.20;;
22634;SDS011;11484;50.858;4.384;2023-03-13T08:09:19;5.93;;;2.03;;
22634;SDS011;11484;50.858;4.384;2023-03-13T08:11:45;3.92;;;1.90;;
22634;SDS011;11484;50.858;4.384;2023-03-13T08:14:11;3.40;;;1.88;;
22634;SDS011;11484;50.858;4.384;2023-03-13T08:16:39;5.53;;;2.33;;
22634;SDS011;11484;50.858;4.384;2023-03-13T08:19:05;5.90;;;2.00;;
22634;SDS011;11484;50.858;4.384;2023-03-13T08:21:32;5.47;;;2.50;;
22634;SDS011;11484;50.858;4.384;2023-03-13T08:24:01;3.03;;;1.50;;
22634;SDS011;11484;50.858;4.384;2023-03-13T08:26:30;3.25;;;1.50;;
22634;SDS011;11484;50.858;4.384;2023-03-13T08:28:59;6.70;;;1.80;;
22634;SDS011;11484;50.858;4.384;2023-03-13T08:31:34;4.28;;;1.65;;
22634;SDS011;11484;50.858;4.384;2023-03-13T08:34:01;3.63;;;1.70;;
22634;SDS011;11484;50.858;4.384;2023-03-13T08:38:59;5.93;;;1.98;;
22634;SDS011;11484;50.858;4.384;2023-03-13T08:41:28;4.35;;;1.88;;
22634;SDS011;11484;50.858;4.384;2023-03-13T08:46:23;6.60;;;1.80;;
22634;SDS011;11484;50.858;4.384;2023-03-13T08:48:53;5.43;;;1.92;;
22634;SDS011;11484;50.858;4.384;2023-03-13T08:51:19;2.85;;;1.85;;
22634;SDS011;11484;50.858;4.384;2023-03-13T08:53:50;2.20;;;1.73;;
22634;SDS011;11484;50.858;4.384;2023-03-13T08:56:17;3.10;;;1.42;;
22634;SDS011;11484;50.858;4.384;2023-03-13T08:58:51;4.72;;;2.20;;
22634;SDS011;11484;50.858;4.384;2023-03-13T09:01:22;3.22;;;1.40;;
22634;SDS011;11484;50.858;4.384;2023-03-13T09:03:49;5.90;;;1.80;;
22634;SDS011;11484;50.858;4.384;2023-03-13T09:06:15;3.75;;;1.63;;
22634;SDS011;11484;50.858;4.384;2023-03-13T09:08:41;4.32;;;1.60;;
22634;SDS011;11484;50.858;4.384;2023-03-13T09:11:09;3.42;;;1.40;;
22634;SDS011;11484;50.858;4.384;2023-03-13T09:13:38;4.03;;;1.83;;
22634;SDS011;11484;50.858;4.384;2023-03-13T09:16:06;3.65;;;1.95;;
22634;SDS011;11484;50.858;4.384;2023-03-13T09:18:36;3.13;;;1.58;;
22634;SDS011;11484;50.858;4.384;2023-03-13T09:21:04;4.32;;;1.50;;
22634;SDS011;11484;50.858;4.384;2023-03-13T09:23:31;2.95;;;1.50;;
22634;SDS011;11484;50.858;4.384;2023-03-13T09:25:57;4.32;;;1.85;;
22634;SDS011;11484;50.858;4.384;2023-03-13T09:28:23;3.80;;;1.23;;
22634;SDS011;11484;50.858;4.384;2023-03-13T09:30:50;5.03;;;2.20;;
22634;SDS011;11484;50.858;4.384;2023-03-13T09:33:17;3.47;;;1.17;;
22634;SDS011;11484;50.858;4.384;2023-03-13T09:35:44;2.45;;;1.20;;
22634;SDS011;11484;50.858;4.384;2023-03-13T09:38:15;3.45;;;1.50;;
22634;SDS011;11484;50.858;4.384;2023-03-13T09:40:43;3.22;;;1.25;;
22634;SDS011;11484;50.858;4.384;2023-03-13T09:45:56;4.30;;;1.45;;
22634;SDS011;11484;50.858;4.384;2023-03-13T09:48:30;3.42;;;1.15;;
22634;SDS011;11484;50.858;4.384;2023-03-13T09:54:05;2.85;;;1.13;;
22634;SDS011;11484;50.858;4.384;2023-03-13T09:56:40;2.80;;;1.35;;
22634;SDS011;11484;50.858;4.384;2023-03-13T09:59:14;2.38;;;1.00;;
22634;SDS011;11484;50.858;4.384;2023-03-13T10:01:45;3.42;;;1.40;;
22634;SDS011;11484;50.858;4.384;2023-03-13T10:04:20;2.28;;;1.00;;
22634;SDS011;11484;50.858;4.384;2023-03-13T10:06:54;2.90;;;0.90;;
22634;SDS011;11484;50.858;4.384;2023-03-13T10:09:23;4.75;;;1.38;;
22634;SDS011;11484;50.858;4.384;2023-03-13T10:17:31;3.60;;;0.93;;
22634;SDS011;11484;50.858;4.384;2023-03-13T10:20:02;3.00;;;1.23;;
22634;SDS011;11484;50.858;4.384;2023-03-13T10:22:36;3.35;;;1.55;;
22634;SDS011;11484;50.858;4.384;2023-03-13T10:25:37;6.57;;;1.42;;
22634;SDS011;11484;50.858;4.384;2023-03-13T10:27:59;2.70;;;1.17;;
22634;SDS011;11484;50.858;4.384;2023-03-13T10:30:27;2.20;;;0.90;;
22634;SDS011;11484;50.858;4.384;2023-03-13T10:33:44;2.03;;;0.90;;
22634;SDS011;11484;50.858;4.384;2023-03-13T10:36:00;7.65;;;1.27;;
22634;SDS011;11484;50.858;4.384;2023-03-13T10:38:35;2.45;;;1.10;;
22634;SDS011;11484;50.858;4.384;2023-03-13T10:44:04;2.80;;;1.10;;
22634;SDS011;11484;50.858;4.384;2023-03-13T10:46:39;4.93;;;1.10;;
22634;SDS011;11484;50.858;4.384;2023-03-13T10:49:25;3.95;;;1.25;;
22634;SDS011;11484;50.858;4.384;2023-03-13T10:51:52;3.50;;;1.27;;
22634;SDS011;11484;50.858;4.384;2023-03-13T10:54:33;2.08;;;1.10;;
22634;SDS011;11484;50.858;4.384;2023-03-13T10:57:34;2.17;;;1.00;;
22634;SDS011;11484;50.858;4.384;2023-03-13T10:59:54;2.20;;;1.10;;
22634;SDS011;11484;50.858;4.384;2023-03-13T11:04:59;7.38;;;1.45;;
22634;SDS011;11484;50.858;4.384;2023-03-13T11:07:44;2.20;;;1.17;;
22634;SDS011;11484;50.858;4.384;2023-03-13T11:10:23;4.97;;;1.45;;
22634;SDS011;11484;50.858;4.384;2023-03-13T11:12:51;3.63;;;1.30;;
22634;SDS011;11484;50.858;4.384;2023-03-13T11:15:24;2.85;;;0.85;;
22634;SDS011;11484;50.858;4.384;2023-03-13T11:18:05;1.75;;;1.00;;
22634;SDS011;11484;50.858;4.384;2023-03-13T11:20:43;5.25;;;1.08;;
22634;SDS011;11484;50.858;4.384;2023-03-13T11:29:20;1.90;;;0.88;;
22634;SDS011;11484;50.858;4.384;2023-03-13T11:32:02;3.25;;;0.70;;
22634;SDS011;11484;50.858;4.384;2023-03-13T11:34:45;3.03;;;0.90;;
22634;SDS011;11484;50.858;4.384;2023-03-13T11:37:16;3.10;;;0.90;;
22634;SDS011;11484;50.858;4.384;2023-03-13T11:50:57;2.75;;;1.00;;
22634;SDS011;11484;50.858;4.384;2023-03-13T11:56:42;4.30;;;0.80;;
22634;SDS011;11484;50.858;4.384;2023-03-13T12:04:51;5.95;;;0.88;;
22634;SDS011;11484;50.858;4.384;2023-03-13T12:07:31;2.60;;;0.80;;
22634;SDS011;11484;50.858;4.384;2023-03-13T12:10:21;4.70;;;1.00;;
22634;SDS011;11484;50.858;4.384;2023-03-13T12:15:27;2.05;;;0.75;;
22634;SDS011;11484;50.858;4.384;2023-03-13T12:18:17;4.90;;;0.95;;
22634;SDS011;11484;50.858;4.384;2023-03-13T12:23:53;2.72;;;0.70;;
22634;SDS011;11484;50.858;4.384;2023-03-13T12:26:20;1.25;;;0.70;;
22634;SDS011;11484;50.858;4.384;2023-03-13T12:29:10;3.65;;;1.00;;
22634;SDS011;11484;50.858;4.384;2023-03-13T12:38:23;1.88;;;0.95;;
22634;SDS011;11484;50.858;4.384;2023-03-13T12:40:27;3.75;;;1.25;;
22634;SDS011;11484;50.858;4.384;2023-03-13T12:48:44;8.63;;;3.63;;
22634;SDS011;11484;50.858;4.384;2023-03-13T12:54:26;1.50;;;0.73;;
22634;SDS011;11484;50.858;4.384;2023-03-13T13:00:22;2.15;;;0.65;;
22634;SDS011;11484;50.858;4.384;2023-03-13T13:05:40;5.00;;;0.80;;
22634;SDS011;11484;50.858;4.384;2023-03-13T13:08:32;3.55;;;0.80;;
22634;SDS011;11484;50.858;4.384;2023-03-13T13:16:41;2.13;;;0.77;;
22634;SDS011;11484;50.858;4.384;2023-03-13T13:24:58;2.97;;;0.70;;
22634;SDS011;11484;50.858;4.384;2023-03-13T13:29:57;4.00;;;0.95;;
22634;SDS011;11484;50.858;4.384;2023-03-13T13:32:38;3.97;;;0.75;;
22634;SDS011;11484;50.858;4.384;2023-03-13T13:37:41;1.60;;;0.57;;
22634;SDS011;11484;50.858;4.384;2023-03-13T13:40:21;4.13;;;0.90;;
22634;SDS011;11484;50.858;4.384;2023-03-13T13:42:55;3.33;;;0.85;;
22634;SDS011;11484;50.858;4.384;2023-03-13T13:45:25;9.52;;;1.83;;
22634;SDS011;11484;50.858;4.384;2023-03-13T13:48:12;4.07;;;1.00;;
22634;SDS011;11484;50.858;4.384;2023-03-13T13:58:57;2.58;;;0.70;;
22634;SDS011;11484;50.858;4.384;2023-03-13T14:01:27;5.43;;;1.08;;
22634;SDS011;11484;50.858;4.384;2023-03-13T14:03:53;3.70;;;1.20;;
22634;SDS011;11484;50.858;4.384;2023-03-13T14:06:35;3.50;;;1.17;;
22634;SDS011;11484;50.858;4.384;2023-03-13T14:09:12;2.08;;;0.80;;
22634;SDS011;11484;50.858;4.384;2023-03-13T14:11:39;2.40;;;0.80;;
22634;SDS011;11484;50.858;4.384;2023-03-13T14:16:47;2.83;;;0.90;;
22634;SDS011;11484;50.858;4.384;2023-03-13T14:19:57;3.15;;;0.95;;
22634;SDS011;11484;50.858;4.384;2023-03-13T14:22:09;4.60;;;1.05;;
22634;SDS011;11484;50.858;4.384;2023-03-13T14:24:38;4.22;;;1.60;;
22634;SDS011;11484;50.858;4.384;2023-03-13T14:27:17;3.75;;;1.77;;
22634;SDS011;11484;50.858;4.384;2023-03-13T14:30:03;3.15;;;0.93;;
22634;SDS011;11484;50.858;4.384;2023-03-13T14:32:33;9.95;;;2.80;;
22634;SDS011;11484;50.858;4.384;2023-03-13T14:34:59;7.32;;;1.80;;
22634;SDS011;11484;50.858;4.384;2023-03-13T14:37:32;3.78;;;1.60;;
22634;SDS011;11484;50.858;4.384;2023-03-13T14:40:06;3.50;;;1.52;;
22634;SDS011;11484;50.858;4.384;2023-03-13T14:42:39;5.32;;;1.83;;
22634;SDS011;11484;50.858;4.384;2023-03-13T14:45:13;5.00;;;1.90;;
22634;SDS011;11484;50.858;4.384;2023-03-13T14:47:51;7.15;;;1.05;;
22634;SDS011;11484;50.858;4.384;2023-03-13T14:50:19;4.43;;;1.20;;
22634;SDS011;11484;50.858;4.384;2023-03-13T14:52:52;6.88;;;1.77;;
22634;SDS011;11484;50.858;4.384;2023-03-13T14:58:47;3.72;;;1.20;;
22634;SDS011;11484;50.858;4.384;2023-03-13T15:00:44;5.13;;;1.08;;
22634;SDS011;11484;50.858;4.384;2023-03-13T15:03:17;3.08;;;0.98;;
22634;SDS011;11484;50.858;4.384;2023-03-13T15:08:31;3.58;;;0.80;;
22634;SDS011;11484;50.858;4.384;2023-03-13T15:10:59;4.32;;;1.20;;
22634;SDS011;11484;50.858;4.384;2023-03-13T15:13:26;4.82;;;1.88;;
22634;SDS011;11484;50.858;4.384;2023-03-13T15:15:57;3.97;;;1.00;;
22634;SDS011;11484;50.858;4.384;2023-03-13T15:18:27;4.75;;;1.50;;
22634;SDS011;11484;50.858;4.384;2023-03-13T15:20:56;2.92;;;0.90;;
22634;SDS011;11484;50.858;4.384;2023-03-13T15:24:15;2.10;;;0.85;;
22634;SDS011;11484;50.858;4.384;2023-03-13T15:26:37;4.43;;;0.80;;
22634;SDS011;11484;50.858;4.384;2023-03-13T15:29:03;2.85;;;0.82;;
22634;SDS011;11484;50.858;4.384;2023-03-13T15:31:29;2.90;;;0.75;;
22634;SDS011;11484;50.858;4.384;2023-03-13T15:33:55;4.10;;;0.70;;
22634;SDS011;11484;50.858;4.384;2023-03-13T15:36:24;4.38;;;1.10;;
22634;SDS011;11484;50.858;4.384;2023-03-13T15:38:51;4.63;;;1.00;;
22634;SDS011;11484;50.858;4.384;2023-03-13T15:41:18;4.10;;;1.23;;
22634;SDS011;11484;50.858;4.384;2023-03-13T15:43:47;2.25;;;1.35;;
22634;SDS011;11484;50.858;4.384;2023-03-13T15:46:20;2.72;;;1.25;;
22634;SDS011;11484;50.858;4.384;2023-03-13T15:48:47;2.60;;;1.17;;
22634;SDS011;11484;50.858;4.384;2023-03-13T15:51:15;3.42;;;1.10;;
22634;SDS011;11484;50.858;4.384;2023-03-13T15:53:42;3.00;;;1.00;;
22634;SDS011;11484;50.858;4.384;2023-03-13T15:56:15;4.05;;;1.00;;
22634;SDS011;11484;50.858;4.384;2023-03-13T15:58:43;4.30;;;1.20;;
22634;SDS011;11484;50.858;4.384;2023-03-13T16:01:10;5.60;;;1.15;;
22634;SDS011;11484;50.858;4.384;2023-03-13T16:03:37;11.25;;;1.85;;
22634;SDS011;11484;50.858;4.384;2023-03-13T16:06:09;2.65;;;1.17;;
22634;SDS011;11484;50.858;4.384;2023-03-13T16:08:36;4.95;;;1.58;;
22634;SDS011;11484;50.858;4.384;2023-03-13T16:11:02;3.72;;;1.30;;
22634;SDS011;11484;50.858;4.384;2023-03-13T16:13:28;3.35;;;2.25;;
22634;SDS011;11484;50.858;4.384;2023-03-13T16:15:54;6.93;;;1.30;;
22634;SDS011;11484;50.858;4.384;2023-03-13T16:18:23;5.97;;;1.75;;
22634;SDS011;11484;50.858;4.384;2023-03-13T16:20:50;4.10;;;1.30;;
22634;SDS011;11484;50.858;4.384;2023-03-13T16:23:16;3.60;;;1.25;;
22634;SDS011;11484;50.858;4.384;2023-03-13T16:25:43;8.07;;;1.90;;
22634;SDS011;11484;50.858;4.384;2023-03-13T16:28:10;7.85;;;1.73;;
22634;SDS011;11484;50.858;4.384;2023-03-13T16:30:37;3.60;;;1.17;;
22634;SDS011;11484;50.858;4.384;2023-03-13T16:33:11;4.18;;;1.77;;
22634;SDS011;11484;50.858;4.384;2023-03-13T16:35:37;5.50;;;1.40;;
22634;SDS011;11484;50.858;4.384;2023-03-13T16:38:03;6.70;;;1.42;;
22634;SDS011;11484;50.858;4.384;2023-03-13T16:40:32;5.20;;;1.80;;
22634;SDS011;11484;50.858;4.384;2023-03-13T16:42:58;6.13;;;2.10;;
22634;SDS011;11484;50.858;4.384;2023-03-13T16:45:24;3.30;;;1.27;;
22634;SDS011;11484;50.858;4.384;2023-03-13T16:47:51;5.72;;;1.60;;
22634;SDS011;11484;50.858;4.384;2023-03-13T16:50:20;6.47;;;1.65;;
22634;SDS011;11484;50.858;4.384;2023-03-13T16:52:49;3.10;;;1.20;;
22634;SDS011;11484;50.858;4.384;2023-03-13T16:55:16;6.00;;;1.67;;
22634;SDS011;11484;50.858;4.384;2023-03-13T16:57:42;5.88;;;1.58;;
22634;SDS011;11484;50.858;4.384;2023-03-13T17:00:12;7.68;;;1.60;;
22634;SDS011;11484;50.858;4.384;2023-03-13T17:02:40;5.95;;;1.25;;
22634;SDS011;11484;50.858;4.384;2023-03-13T17:05:06;4.20;;;1.60;;